Terminal Aerodrome Forecast
Issued by NWS

Home | Current Version | Previous Version | Text Only | Print | Product List | Glossary On
Versions: 1 2 3 4 5 6 7 8 9 10 11 12 13 14 15 16 17 18
000
FTUS46 KMTR 171700
TAFSTS
TAF
KSTS 171736Z 1718/1818 VRB03KT P6SM SCT020
     FM172000 18010KT P6SM SCT200
     FM180500 15005KT P6SM BKN015 OVC050 PROB30 1806/1809 -RA
     FM180900 15006KT P6SM -RA OVC015=

USA.gov is the U.S. government's official web portal to all federal, state and local government web resources and services.